sensor_id;sensor_type;location;lat;lon;timestamp;pressure;altitude;pressure_sealevel;temperature;humidity
72921;BME280;61064;51.654;5.476;2024-03-25T00:01:53;100840.94;;;5.72;99.35
72921;BME280;61064;51.654;5.476;2024-03-25T00:04:19;100835.66;;;5.72;99.60
72921;BME280;61064;51.654;5.476;2024-03-25T00:06:46;100852.34;;;5.71;99.53
72921;BME280;61064;51.654;5.476;2024-03-25T00:09:11;100824.78;;;5.60;99.48
72921;BME280;61064;51.654;5.476;2024-03-25T00:11:48;100839.78;;;5.61;99.42
72921;BME280;61064;51.654;5.476;2024-03-25T00:14:14;100841.63;;;5.65;99.40
72921;BME280;61064;51.654;5.476;2024-03-25T00:16:39;100835.28;;;5.57;99.30
72921;BME280;61064;51.654;5.476;2024-03-25T00:19:04;100830.63;;;5.49;99.19
72921;BME280;61064;51.654;5.476;2024-03-25T00:21:30;100843.88;;;5.50;99.22
72921;BME280;61064;51.654;5.476;2024-03-25T00:23:55;100853.47;;;5.48;99.31
72921;BME280;61064;51.654;5.476;2024-03-25T00:26:23;100831.19;;;5.37;99.25
72921;BME280;61064;51.654;5.476;2024-03-25T00:28:49;100843.53;;;5.38;99.36
72921;BME280;61064;51.654;5.476;2024-03-25T00:31:14;100832.81;;;5.32;99.43
72921;BME280;61064;51.654;5.476;2024-03-25T00:33:40;100830.06;;;5.27;99.39
72921;BME280;61064;51.654;5.476;2024-03-25T00:36:05;100831.75;;;5.25;99.12
72921;BME280;61064;51.654;5.476;2024-03-25T00:38:30;100821.84;;;5.17;99.39
72921;BME280;61064;51.654;5.476;2024-03-25T00:40:56;100830.66;;;5.17;99.07
72921;BME280;61064;51.654;5.476;2024-03-25T00:43:23;100814.63;;;5.10;99.38
72921;BME280;61064;51.654;5.476;2024-03-25T00:45:48;100828.69;;;5.10;99.40
72921;BME280;61064;51.654;5.476;2024-03-25T00:48:13;100816.13;;;5.01;99.19
72921;BME280;61064;51.654;5.476;2024-03-25T00:50:39;100827.56;;;5.00;99.36
72921;BME280;61064;51.654;5.476;2024-03-25T00:53:04;100815.84;;;4.91;99.44
72921;BME280;61064;51.654;5.476;2024-03-25T00:55:29;100832.72;;;4.97;99.51
72921;BME280;61064;51.654;5.476;2024-03-25T00:57:55;100823.66;;;4.88;99.25
72921;BME280;61064;51.654;5.476;2024-03-25T01:00:21;100820.94;;;4.85;99.37
72921;BME280;61064;51.654;5.476;2024-03-25T01:02:46;100826.91;;;4.79;99.34
72921;BME280;61064;51.654;5.476;2024-03-25T01:05:12;100819.78;;;4.75;99.37
72921;BME280;61064;51.654;5.476;2024-03-25T01:07:37;100839.31;;;4.82;99.42
72921;BME280;61064;51.654;5.476;2024-03-25T01:10:03;100838.22;;;4.75;99.51
72921;BME280;61064;51.654;5.476;2024-03-25T01:12:28;100843.38;;;4.71;99.45
72921;BME280;61064;51.654;5.476;2024-03-25T01:14:54;100849.41;;;4.68;99.57
72921;BME280;61064;51.654;5.476;2024-03-25T01:17:19;100844.91;;;4.64;99.57
72921;BME280;61064;51.654;5.476;2024-03-25T01:19:44;100855.41;;;4.63;99.45
72921;BME280;61064;51.654;5.476;2024-03-25T01:22:10;100833.16;;;4.53;99.44
72921;BME280;61064;51.654;5.476;2024-03-25T01:24:35;100836.81;;;4.56;99.66
72921;BME280;61064;51.654;5.476;2024-03-25T01:27:01;100834.13;;;4.55;99.89
72921;BME280;61064;51.654;5.476;2024-03-25T01:29:26;100824.22;;;4.48;99.78
72921;BME280;61064;51.654;5.476;2024-03-25T01:31:52;100835.72;;;4.50;99.76
72921;BME280;61064;51.654;5.476;2024-03-25T01:34:17;100836.38;;;4.43;99.60
72921;BME280;61064;51.654;5.476;2024-03-25T01:36:43;100843.38;;;4.42;99.72
72921;BME280;61064;51.654;5.476;2024-03-25T01:39:08;100834.44;;;4.37;99.95
72921;BME280;61064;51.654;5.476;2024-03-25T01:41:34;100844.19;;;4.40;99.62
72921;BME280;61064;51.654;5.476;2024-03-25T01:44:02;100855.59;;;4.40;99.94
72921;BME280;61064;51.654;5.476;2024-03-25T01:46:31;100864.56;;;4.45;99.90
72921;BME280;61064;51.654;5.476;2024-03-25T01:48:56;100857.34;;;4.40;99.75
72921;BME280;61064;51.654;5.476;2024-03-25T01:51:26;100844.84;;;4.33;99.91
72921;BME280;61064;51.654;5.476;2024-03-25T01:53:53;100844.00;;;4.34;99.98
72921;BME280;61064;51.654;5.476;2024-03-25T01:56:20;100835.13;;;4.32;100.00
72921;BME280;61064;51.654;5.476;2024-03-25T01:58:47;100849.47;;;4.40;100.00
72921;BME280;61064;51.654;5.476;2024-03-25T02:01:13;100827.88;;;4.25;99.92
72921;BME280;61064;51.654;5.476;2024-03-25T02:03:41;100843.94;;;4.32;100.00
72921;BME280;61064;51.654;5.476;2024-03-25T02:06:12;100825.22;;;4.23;100.00
72921;BME280;61064;51.654;5.476;2024-03-25T02:08:39;100850.16;;;4.34;100.00
72921;BME280;61064;51.654;5.476;2024-03-25T02:11:06;100845.59;;;4.29;100.00
72921;BME280;61064;51.654;5.476;2024-03-25T02:13:32;100835.66;;;4.20;100.00
72921;BME280;61064;51.654;5.476;2024-03-25T02:15:57;100852.53;;;4.27;100.00
72921;BME280;61064;51.654;5.476;2024-03-25T02:18:23;100836.41;;;4.16;100.00
72921;BME280;61064;51.654;5.476;2024-03-25T02:20:48;100838.09;;;4.14;100.00
72921;BME280;61064;51.654;5.476;2024-03-25T02:23:16;100843.28;;;4.12;100.00
72921;BME280;61064;51.654;5.476;2024-03-25T02:25:42;100838.03;;;4.12;100.00
72921;BME280;61064;51.654;5.476;2024-03-25T02:28:09;100849.66;;;4.19;100.00
72921;BME280;61064;51.654;5.476;2024-03-25T02:30:34;100853.13;;;4.18;100.00
72921;BME280;61064;51.654;5.476;2024-03-25T02:33:02;100849.63;;;4.17;100.00
72921;BME280;61064;51.654;5.476;2024-03-25T02:35:30;100838.00;;;4.11;100.00
72921;BME280;61064;51.654;5.476;2024-03-25T02:37:55;100844.16;;;4.11;100.00
72921;BME280;61064;51.654;5.476;2024-03-25T02:40:21;100840.66;;;4.12;100.00
72921;BME280;61064;51.654;5.476;2024-03-25T02:42:49;100837.25;;;4.15;100.00
72921;BME280;61064;51.654;5.476;2024-03-25T02:45:15;100827.50;;;4.12;100.00
72921;BME280;61064;51.654;5.476;2024-03-25T02:47:40;100824.88;;;4.12;100.00
72921;BME280;61064;51.654;5.476;2024-03-25T02:50:06;100826.63;;;4.12;100.00
72921;BME280;61064;51.654;5.476;2024-03-25T02:52:31;100818.66;;;4.10;100.00
72921;BME280;61064;51.654;5.476;2024-03-25T02:54:56;100830.31;;;4.17;100.00
72921;BME280;61064;51.654;5.476;2024-03-25T02:57:22;100820.34;;;4.08;100.00
72921;BME280;61064;51.654;5.476;2024-03-25T02:59:48;100829.34;;;4.15;100.00
72921;BME280;61064;51.654;5.476;2024-03-25T03:02:13;100826.44;;;4.06;100.00
72921;BME280;61064;51.654;5.476;2024-03-25T03:04:39;100813.91;;;3.99;100.00
72921;BME280;61064;51.654;5.476;2024-03-25T03:07:04;100821.09;;;4.04;100.00
72921;BME280;61064;51.654;5.476;2024-03-25T03:09:30;100821.88;;;4.02;100.00
72921;BME280;61064;51.654;5.476;2024-03-25T03:11:55;100824.63;;;4.05;100.00
72921;BME280;61064;51.654;5.476;2024-03-25T03:14:23;100802.28;;;3.92;100.00
72921;BME280;61064;51.654;5.476;2024-03-25T03:16:49;100827.16;;;4.02;100.00
72921;BME280;61064;51.654;5.476;2024-03-25T03:19:14;100806.50;;;3.87;100.00
72921;BME280;61064;51.654;5.476;2024-03-25T03:21:40;100805.75;;;3.91;100.00
72921;BME280;61064;51.654;5.476;2024-03-25T03:24:05;100808.31;;;3.88;100.00
72921;BME280;61064;51.654;5.476;2024-03-25T03:26:31;100805.66;;;3.88;100.00
72921;BME280;61064;51.654;5.476;2024-03-25T03:28:59;100814.50;;;3.90;100.00
72921;BME280;61064;51.654;5.476;2024-03-25T03:31:26;100814.41;;;3.87;100.00
72921;BME280;61064;51.654;5.476;2024-03-25T03:33:52;100816.28;;;3.91;100.00
72921;BME280;61064;51.654;5.476;2024-03-25T03:36:18;100794.94;;;3.82;100.00
72921;BME280;61064;51.654;5.476;2024-03-25T03:38:44;100810.03;;;3.88;100.00
72921;BME280;61064;51.654;5.476;2024-03-25T03:41:09;100791.34;;;3.80;100.00
72921;BME280;61064;51.654;5.476;2024-03-25T03:43:35;100810.88;;;3.87;100.00
72921;BME280;61064;51.654;5.476;2024-03-25T03:46:01;100805.47;;;3.82;100.00
72921;BME280;61064;51.654;5.476;2024-03-25T03:48:27;100811.56;;;3.81;100.00
72921;BME280;61064;51.654;5.476;2024-03-25T03:50:53;100808.88;;;3.80;100.00
72921;BME280;61064;51.654;5.476;2024-03-25T03:53:18;100801.53;;;3.69;100.00
72921;BME280;61064;51.654;5.476;2024-03-25T03:55:56;100794.31;;;3.64;100.00
72921;BME280;61064;51.654;5.476;2024-03-25T03:58:22;100813.78;;;3.69;100.00
72921;BME280;61064;51.654;5.476;2024-03-25T04:00:48;100816.38;;;3.67;100.00
72921;BME280;61064;51.654;5.476;2024-03-25T04:03:13;100794.94;;;3.55;100.00
72921;BME280;61064;51.654;5.476;2024-03-25T04:05:39;100802.13;;;3.61;100.00
72921;BME280;61064;51.654;5.476;2024-03-25T04:08:05;100800.22;;;3.57;100.00
72921;BME280;61064;51.654;5.476;2024-03-25T04:10:30;100801.03;;;3.54;100.00
72921;BME280;61064;51.654;5.476;2024-03-25T04:12:55;100801.88;;;3.53;100.00
72921;BME280;61064;51.654;5.476;2024-03-25T04:15:22;100803.53;;;3.51;100.00
72921;BME280;61064;51.654;5.476;2024-03-25T04:17:48;100814.19;;;3.54;100.00
72921;BME280;61064;51.654;5.476;2024-03-25T04:20:15;100801.78;;;3.50;100.00
72921;BME280;61064;51.654;5.476;2024-03-25T04:22:45;100818.69;;;3.58;100.00
72921;BME280;61064;51.654;5.476;2024-03-25T04:25:11;100817.78;;;3.58;100.00
72921;BME280;61064;51.654;5.476;2024-03-25T04:27:43;100809.81;;;3.55;100.00
72921;BME280;61064;51.654;5.476;2024-03-25T04:30:09;100815.06;;;3.55;100.00
72921;BME280;61064;51.654;5.476;2024-03-25T04:32:37;100791.03;;;3.44;100.00
72921;BME280;61064;51.654;5.476;2024-03-25T04:35:03;100809.66;;;3.50;100.00
72921;BME280;61064;51.654;5.476;2024-03-25T04:37:29;100798.81;;;3.41;100.00
72921;BME280;61064;51.654;5.476;2024-03-25T04:39:55;100804.34;;;3.49;100.00
72921;BME280;61064;51.654;5.476;2024-03-25T04:42:21;100805.03;;;3.43;100.00
72921;BME280;61064;51.654;5.476;2024-03-25T04:44:47;100791.66;;;3.37;100.00
72921;BME280;61064;51.654;5.476;2024-03-25T04:47:12;100804.97;;;3.42;100.00
72921;BME280;61064;51.654;5.476;2024-03-25T04:49:38;100814.72;;;3.44;100.00
72921;BME280;61064;51.654;5.476;2024-03-25T04:52:04;100798.59;;;3.35;100.00
72921;BME280;61064;51.654;5.476;2024-03-25T04:54:30;100797.69;;;3.33;100.00
72921;BME280;61064;51.654;5.476;2024-03-25T04:56:55;100803.03;;;3.36;100.00
72921;BME280;61064;51.654;5.476;2024-03-25T04:59:21;100797.69;;;3.34;100.00
72921;BME280;61064;51.654;5.476;2024-03-25T05:01:46;100797.69;;;3.33;100.00
72921;BME280;61064;51.654;5.476;2024-03-25T05:04:12;100793.19;;;3.30;100.00
72921;BME280;61064;51.654;5.476;2024-03-25T05:06:37;100804.59;;;3.31;100.00
72921;BME280;61064;51.654;5.476;2024-03-25T05:09:03;100825.06;;;3.40;100.00
72921;BME280;61064;51.654;5.476;2024-03-25T05:11:28;100823.22;;;3.37;100.00
72921;BME280;61064;51.654;5.476;2024-03-25T05:13:53;100815.94;;;3.30;100.00
72921;BME280;61064;51.654;5.476;2024-03-25T05:16:19;100825.63;;;3.31;100.00
72921;BME280;61064;51.654;5.476;2024-03-25T05:18:44;100818.66;;;3.31;100.00
72921;BME280;61064;51.654;5.476;2024-03-25T05:21:09;100814.13;;;3.27;100.00
72921;BME280;61064;51.654;5.476;2024-03-25T05:23:35;100820.28;;;3.28;100.00
72921;BME280;61064;51.654;5.476;2024-03-25T05:26:00;100820.16;;;3.25;100.00
72921;BME280;61064;51.654;5.476;2024-03-25T05:28:26;100822.84;;;3.26;100.00
72921;BME280;61064;51.654;5.476;2024-03-25T05:30:51;100817.53;;;3.25;100.00
72921;BME280;61064;51.654;5.476;2024-03-25T05:33:16;100819.25;;;3.24;100.00
72921;BME280;61064;51.654;5.476;2024-03-25T05:35:42;100824.59;;;3.26;100.00
72921;BME280;61064;51.654;5.476;2024-03-25T05:38:07;100828.16;;;3.28;100.00
72921;BME280;61064;51.654;5.476;2024-03-25T05:40:32;100836.31;;;3.35;100.00
72921;BME280;61064;51.654;5.476;2024-03-25T05:42:58;100823.75;;;3.27;100.00
72921;BME280;61064;51.654;5.476;2024-03-25T05:45:24;100830.22;;;3.37;100.00
72921;BME280;61064;51.654;5.476;2024-03-25T05:47:52;100833.75;;;3.37;100.00
72921;BME280;61064;51.654;5.476;2024-03-25T05:50:17;100833.81;;;3.39;100.00
72921;BME280;61064;51.654;5.476;2024-03-25T05:52:42;100835.47;;;3.37;100.00
72921;BME280;61064;51.654;5.476;2024-03-25T05:55:08;100812.44;;;3.29;100.00
72921;BME280;61064;51.654;5.476;2024-03-25T05:57:35;100804.38;;;3.25;100.00
72921;BME280;61064;51.654;5.476;2024-03-25T06:00:01;100832.09;;;3.41;100.00
72921;BME280;61064;51.654;5.476;2024-03-25T06:02:27;100806.25;;;3.27;100.00
72921;BME280;61064;51.654;5.476;2024-03-25T06:04:52;100811.75;;;3.35;100.00
72921;BME280;61064;51.654;5.476;2024-03-25T06:07:18;100806.41;;;3.32;100.00
72921;BME280;61064;51.654;5.476;2024-03-25T06:09:45;100811.88;;;3.38;100.00
72921;BME280;61064;51.654;5.476;2024-03-25T06:12:12;100805.66;;;3.36;100.00
72921;BME280;61064;51.654;5.476;2024-03-25T06:14:38;100828.78;;;3.46;100.00
72921;BME280;61064;51.654;5.476;2024-03-25T06:17:04;100817.38;;;3.46;100.00
72921;BME280;61064;51.654;5.476;2024-03-25T06:19:29;100816.59;;;3.48;100.00
72921;BME280;61064;51.654;5.476;2024-03-25T06:21:55;100821.09;;;3.51;100.00
72921;BME280;61064;51.654;5.476;2024-03-25T06:24:23;100811.34;;;3.48;100.00
72921;BME280;61064;51.654;5.476;2024-03-25T06:26:49;100806.00;;;3.45;100.00
72921;BME280;61064;51.654;5.476;2024-03-25T06:29:14;100798.34;;;3.53;100.00
72921;BME280;61064;51.654;5.476;2024-03-25T06:31:40;100804.44;;;3.52;100.00
72921;BME280;61064;51.654;5.476;2024-03-25T06:34:24;100809.13;;;3.60;100.00
72921;BME280;61064;51.654;5.476;2024-03-25T06:36:49;100803.13;;;3.64;100.00
72921;BME280;61064;51.654;5.476;2024-03-25T06:39:21;100806.09;;;3.75;100.00
72921;BME280;61064;51.654;5.476;2024-03-25T06:41:46;100783.13;;;3.69;100.00
72921;BME280;61064;51.654;5.476;2024-03-25T06:44:12;100795.00;;;3.84;100.00
72921;BME280;61064;51.654;5.476;2024-03-25T06:46:37;100801.31;;;3.89;100.00
72921;BME280;61064;51.654;5.476;2024-03-25T06:49:07;100796.31;;;3.98;100.00
72921;BME280;61064;51.654;5.476;2024-03-25T06:51:35;100794.72;;;4.03;100.00
72921;BME280;61064;51.654;5.476;2024-03-25T06:54:01;100788.63;;;4.04;100.00
72921;BME280;61064;51.654;5.476;2024-03-25T06:56:26;100796.91;;;4.16;100.00
72921;BME280;61064;51.654;5.476;2024-03-25T06:58:51;100799.81;;;4.25;100.00
72921;BME280;61064;51.654;5.476;2024-03-25T07:01:17;100807.06;;;4.32;100.00
72921;BME280;61064;51.654;5.476;2024-03-25T07:03:45;100793.13;;;4.36;100.00
72921;BME280;61064;51.654;5.476;2024-03-25T07:06:12;100803.34;;;4.54;100.00
72921;BME280;61064;51.654;5.476;2024-03-25T07:08:38;100800.78;;;4.57;100.00
72921;BME280;61064;51.654;5.476;2024-03-25T07:11:03;100787.94;;;4.68;100.00
72921;BME280;61064;51.654;5.476;2024-03-25T07:13:29;100790.13;;;4.82;100.00
72921;BME280;61064;51.654;5.476;2024-03-25T07:15:54;100796.75;;;4.99;100.00
72921;BME280;61064;51.654;5.476;2024-03-25T07:18:21;100800.81;;;5.18;100.00
72921;BME280;61064;51.654;5.476;2024-03-25T07:20:46;100797.56;;;5.28;100.00
72921;BME280;61064;51.654;5.476;2024-03-25T07:23:11;100804.09;;;5.42;100.00
72921;BME280;61064;51.654;5.476;2024-03-25T07:25:37;100782.28;;;5.50;100.00
72921;BME280;61064;51.654;5.476;2024-03-25T07:28:03;100774.72;;;5.63;100.00
72921;BME280;61064;51.654;5.476;2024-03-25T07:30:29;100792.81;;;5.82;100.00
72921;BME280;61064;51.654;5.476;2024-03-25T07:32:57;100780.88;;;5.98;100.00
72921;BME280;61064;51.654;5.476;2024-03-25T07:35:22;100787.56;;;6.18;100.00
72921;BME280;61064;51.654;5.476;2024-03-25T07:37:48;100787.78;;;6.29;100.00
72921;BME280;61064;51.654;5.476;2024-03-25T07:40:16;100781.91;;;6.41;100.00
72921;BME280;61064;51.654;5.476;2024-03-25T07:42:42;100787.50;;;6.56;100.00
72921;BME280;61064;51.654;5.476;2024-03-25T07:45:11;100762.00;;;6.59;100.00
72921;BME280;61064;51.654;5.476;2024-03-25T07:47:36;100766.75;;;6.76;100.00
72921;BME280;61064;51.654;5.476;2024-03-25T07:50:02;100776.78;;;6.92;100.00
72921;BME280;61064;51.654;5.476;2024-03-25T07:52:28;100792.13;;;7.09;100.00
72921;BME280;61064;51.654;5.476;2024-03-25T07:55:07;100781.94;;;7.29;100.00
72921;BME280;61064;51.654;5.476;2024-03-25T07:57:32;100781.25;;;7.39;100.00
72921;BME280;61064;51.654;5.476;2024-03-25T07:59:58;100794.03;;;7.63;100.00
72921;BME280;61064;51.654;5.476;2024-03-25T08:02:23;100799.53;;;7.77;100.00
72921;BME280;61064;51.654;5.476;2024-03-25T08:04:49;100779.25;;;7.77;100.00
72921;BME280;61064;51.654;5.476;2024-03-25T08:07:14;100790.16;;;7.96;100.00
72921;BME280;61064;51.654;5.476;2024-03-25T08:09:39;100797.41;;;8.07;100.00
72921;BME280;61064;51.654;5.476;2024-03-25T08:12:05;100785.03;;;8.09;100.00
72921;BME280;61064;51.654;5.476;2024-03-25T08:14:34;100781.56;;;8.12;100.00
72921;BME280;61064;51.654;5.476;2024-03-25T08:16:59;100787.13;;;8.28;100.00
72921;BME280;61064;51.654;5.476;2024-03-25T08:19:25;100792.53;;;8.34;100.00
72921;BME280;61064;51.654;5.476;2024-03-25T08:21:50;100766.06;;;8.38;100.00
72921;BME280;61064;51.654;5.476;2024-03-25T08:24:18;100768.84;;;8.45;100.00
72921;BME280;61064;51.654;5.476;2024-03-25T08:26:47;100784.91;;;8.59;100.00
72921;BME280;61064;51.654;5.476;2024-03-25T08:29:13;100774.25;;;8.54;100.00
72921;BME280;61064;51.654;5.476;2024-03-25T08:31:39;100806.28;;;8.71;100.00
72921;BME280;61064;51.654;5.476;2024-03-25T08:34:04;100788.53;;;8.62;99.84
72921;BME280;61064;51.654;5.476;2024-03-25T08:36:29;100807.16;;;8.70;100.00
72921;BME280;61064;51.654;5.476;2024-03-25T08:38:55;100775.16;;;8.55;100.00
72921;BME280;61064;51.654;5.476;2024-03-25T08:41:20;100771.75;;;8.63;100.00
72921;BME280;61064;51.654;5.476;2024-03-25T08:43:46;100770.88;;;8.66;99.96
72921;BME280;61064;51.654;5.476;2024-03-25T08:46:11;100802.88;;;8.78;99.71
72921;BME280;61064;51.654;5.476;2024-03-25T08:48:36;100760.13;;;8.55;99.75
72921;BME280;61064;51.654;5.476;2024-03-25T08:51:02;100777.03;;;8.63;99.84
72921;BME280;61064;51.654;5.476;2024-03-25T08:53:29;100770.03;;;8.70;99.90
72921;BME280;61064;51.654;5.476;2024-03-25T08:55:54;100783.38;;;8.76;100.00
72921;BME280;61064;51.654;5.476;2024-03-25T08:58:20;100795.06;;;8.90;100.00
72921;BME280;61064;51.654;5.476;2024-03-25T09:00:45;100774.66;;;8.85;99.96
72921;BME280;61064;51.654;5.476;2024-03-25T09:03:13;100791.59;;;8.96;99.67
72921;BME280;61064;51.654;5.476;2024-03-25T09:05:41;100781.81;;;8.90;99.60
72921;BME280;61064;51.654;5.476;2024-03-25T09:08:07;100764.81;;;8.74;99.76
72921;BME280;61064;51.654;5.476;2024-03-25T09:10:32;100791.50;;;8.88;99.57
72921;BME280;61064;51.654;5.476;2024-03-25T09:13:20;100779.94;;;8.83;99.74
72921;BME280;61064;51.654;5.476;2024-03-25T09:15:47;100760.38;;;8.73;99.90
72921;BME280;61064;51.654;5.476;2024-03-25T09:18:13;100786.28;;;8.97;99.81
72921;BME280;61064;51.654;5.476;2024-03-25T09:20:38;100765.84;;;8.89;99.60
72921;BME280;61064;51.654;5.476;2024-03-25T09:23:06;100755.28;;;8.93;99.46
72921;BME280;61064;51.654;5.476;2024-03-25T09:25:32;100742.00;;;8.92;99.56
72921;BME280;61064;51.654;5.476;2024-03-25T09:27:58;100750.19;;;9.11;99.67
72921;BME280;61064;51.654;5.476;2024-03-25T09:30:23;100730.81;;;9.20;99.47
72921;BME280;61064;51.654;5.476;2024-03-25T09:32:49;100745.16;;;9.39;99.63
72921;BME280;61064;51.654;5.476;2024-03-25T09:35:14;100721.34;;;9.48;99.25
72921;BME280;61064;51.654;5.476;2024-03-25T09:37:39;100721.53;;;9.69;99.26
72921;BME280;61064;51.654;5.476;2024-03-25T09:40:05;100746.59;;;10.06;99.27
72921;BME280;61064;51.654;5.476;2024-03-25T09:42:57;100747.66;;;10.25;98.58
72921;BME280;61064;51.654;5.476;2024-03-25T09:45:24;100737.13;;;10.45;98.35
72921;BME280;61064;51.654;5.476;2024-03-25T09:47:51;100740.75;;;10.60;97.94
72921;BME280;61064;51.654;5.476;2024-03-25T09:50:17;100737.25;;;10.73;97.34
72921;BME280;61064;51.654;5.476;2024-03-25T09:52:49;100718.66;;;10.79;96.57
72921;BME280;61064;51.654;5.476;2024-03-25T09:55:15;100713.31;;;10.78;95.89
72921;BME280;61064;51.654;5.476;2024-03-25T09:57:45;100730.22;;;10.91;95.68
72921;BME280;61064;51.654;5.476;2024-03-25T10:00:11;100726.69;;;10.92;95.52
72921;BME280;61064;51.654;5.476;2024-03-25T10:02:38;100710.72;;;10.96;95.45
72921;BME280;61064;51.654;5.476;2024-03-25T10:05:07;100716.97;;;11.10;95.75
72921;BME280;61064;51.654;5.476;2024-03-25T10:07:38;100691.25;;;11.23;95.92
72921;BME280;61064;51.654;5.476;2024-03-25T10:10:07;100687.72;;;11.39;95.14
72921;BME280;61064;51.654;5.476;2024-03-25T10:12:36;100685.97;;;11.53;94.31
72921;BME280;61064;51.654;5.476;2024-03-25T10:15:05;100685.94;;;11.62;93.56
72921;BME280;61064;51.654;5.476;2024-03-25T10:17:31;100679.72;;;11.66;93.13
72921;BME280;61064;51.654;5.476;2024-03-25T10:19:56;100668.16;;;11.71;92.45
72921;BME280;61064;51.654;5.476;2024-03-25T10:22:22;100659.28;;;11.72;92.59
72921;BME280;61064;51.654;5.476;2024-03-25T10:24:48;100644.22;;;11.81;91.79
72921;BME280;61064;51.654;5.476;2024-03-25T10:27:23;100676.16;;;12.02;90.42
72921;BME280;61064;51.654;5.476;2024-03-25T10:29:53;100684.13;;;12.10;89.61
72921;BME280;61064;51.654;5.476;2024-03-25T10:32:20;100672.59;;;12.03;89.65
72921;BME280;61064;51.654;5.476;2024-03-25T10:34:47;100663.72;;;11.97;88.86
72921;BME280;61064;51.654;5.476;2024-03-25T10:37:13;100666.38;;;12.09;88.43
72921;BME280;61064;51.654;5.476;2024-03-25T10:39:50;100668.13;;;12.10;88.20
72921;BME280;61064;51.654;5.476;2024-03-25T10:42:18;100672.53;;;12.25;88.26
72921;BME280;61064;51.654;5.476;2024-03-25T10:44:48;100654.72;;;12.30;87.87
72921;BME280;61064;51.654;5.476;2024-03-25T10:47:19;100668.03;;;12.34;86.48
72921;BME280;61064;51.654;5.476;2024-03-25T10:49:49;100637.88;;;12.20;86.43
72921;BME280;61064;51.654;5.476;2024-03-25T10:52:15;100635.16;;;12.28;86.35
72921;BME280;61064;51.654;5.476;2024-03-25T10:54:43;100636.91;;;12.41;86.00
72921;BME280;61064;51.654;5.476;2024-03-25T10:57:09;100636.88;;;12.45;84.74
72921;BME280;61064;51.654;5.476;2024-03-25T10:59:35;100649.22;;;12.68;84.02
72921;BME280;61064;51.654;5.476;2024-03-25T11:02:07;100646.53;;;12.75;83.66
72921;BME280;61064;51.654;5.476;2024-03-25T11:04:36;100616.31;;;12.69;82.43
72921;BME280;61064;51.654;5.476;2024-03-25T11:07:13;100621.56;;;12.76;81.27
72921;BME280;61064;51.654;5.476;2024-03-25T11:09:42;100633.13;;;12.80;81.60
72921;BME280;61064;51.654;5.476;2024-03-25T11:12:11;100636.72;;;12.73;81.54
72921;BME280;61064;51.654;5.476;2024-03-25T11:14:38;100613.69;;;12.57;81.83
72921;BME280;61064;51.654;5.476;2024-03-25T11:17:14;100616.38;;;12.57;81.51
72921;BME280;61064;51.654;5.476;2024-03-25T11:19:40;100595.00;;;12.57;81.74
72921;BME280;61064;51.654;5.476;2024-03-25T11:22:10;100613.53;;;12.82;81.12
72921;BME280;61064;51.654;5.476;2024-03-25T11:24:36;100617.00;;;12.97;80.31
72921;BME280;61064;51.654;5.476;2024-03-25T11:27:05;100612.47;;;13.09;79.36
72921;BME280;61064;51.654;5.476;2024-03-25T11:29:31;100603.63;;;13.00;78.77
72921;BME280;61064;51.654;5.476;2024-03-25T11:31:58;100610.75;;;13.04;78.42
72921;BME280;61064;51.654;5.476;2024-03-25T11:34:25;100624.88;;;13.19;78.99
72921;BME280;61064;51.654;5.476;2024-03-25T11:36:50;100594.63;;;13.19;78.67
72921;BME280;61064;51.654;5.476;2024-03-25T11:39:21;100598.81;;;13.46;77.64
72921;BME280;61064;51.654;5.476;2024-03-25T11:41:46;100604.06;;;13.56;76.30
72921;BME280;61064;51.654;5.476;2024-03-25T11:44:14;100598.72;;;13.55;75.66
72921;BME280;61064;51.654;5.476;2024-03-25T11:46:45;100574.84;;;13.40;75.06
72921;BME280;61064;51.654;5.476;2024-03-25T11:49:15;100596.03;;;13.58;75.59
72921;BME280;61064;51.654;5.476;2024-03-25T11:51:43;100588.75;;;13.73;75.67
72921;BME280;61064;51.654;5.476;2024-03-25T11:54:16;100569.97;;;13.78;75.28
72921;BME280;61064;51.654;5.476;2024-03-25T11:56:42;100575.97;;;14.00;74.89
72921;BME280;61064;51.654;5.476;2024-03-25T11:59:08;100569.63;;;14.08;74.77
72921;BME280;61064;51.654;5.476;2024-03-25T12:01:35;100555.25;;;14.17;74.82
72921;BME280;61064;51.654;5.476;2024-03-25T12:04:16;100545.28;;;14.30;73.60
72921;BME280;61064;51.654;5.476;2024-03-25T12:06:42;100556.53;;;14.54;73.60
72921;BME280;61064;51.654;5.476;2024-03-25T12:09:10;100521.81;;;14.50;73.02
72921;BME280;61064;51.654;5.476;2024-03-25T12:11:54;100536.47;;;14.83;73.07
72921;BME280;61064;51.654;5.476;2024-03-25T12:14:24;100509.59;;;14.89;72.25
72921;BME280;61064;51.654;5.476;2024-03-25T12:16:51;100531.50;;;15.15;71.73
72921;BME280;61064;51.654;5.476;2024-03-25T12:19:19;100501.16;;;15.12;71.41
72921;BME280;61064;51.654;5.476;2024-03-25T12:21:44;100511.78;;;15.18;70.81
72921;BME280;61064;51.654;5.476;2024-03-25T12:24:11;100499.28;;;15.17;70.50
72921;BME280;61064;51.654;5.476;2024-03-25T12:26:36;100509.06;;;15.21;69.40
72921;BME280;61064;51.654;5.476;2024-03-25T12:29:02;100516.13;;;15.25;68.67
72921;BME280;61064;51.654;5.476;2024-03-25T12:31:29;100486.78;;;15.16;68.01
72921;BME280;61064;51.654;5.476;2024-03-25T12:33:56;100510.59;;;15.34;68.59
72921;BME280;61064;51.654;5.476;2024-03-25T12:36:24;100510.56;;;15.35;68.51
72921;BME280;61064;51.654;5.476;2024-03-25T12:38:55;100494.41;;;15.38;67.95
72921;BME280;61064;51.654;5.476;2024-03-25T12:41:24;100501.41;;;15.49;66.47
72921;BME280;61064;51.654;5.476;2024-03-25T12:43:50;100505.78;;;15.51;66.46
72921;BME280;61064;51.654;5.476;2024-03-25T12:46:16;100498.72;;;15.49;66.84
72921;BME280;61064;51.654;5.476;2024-03-25T12:48:42;100487.03;;;15.51;67.14
72921;BME280;61064;51.654;5.476;2024-03-25T12:51:17;100473.75;;;15.45;66.46